createdAt,value
2019-04-06T04:02:03.675Z,9.93103
2019-04-06T04:05:33.561Z,10.061951
2019-04-06T04:09:04.418Z,10.102234
2019-04-06T04:12:34.271Z,10.082092
2019-04-06T04:16:04.141Z,10.05188
2019-04-06T04:19:34.219Z,9.981384
2019-04-06T04:23:03.866Z,9.941101
2019-04-06T04:26:33.738Z,9.941101
2019-04-06T04:30:03.615Z,10.031738
2019-04-06T04:33:34.455Z,10.082092
2019-04-06T04:37:04.340Z,10.122375
2019-04-06T04:40:34.423Z,10.082092
2019-04-06T04:44:04.140Z,10.162659
2019-04-06T04:47:33.947Z,10.213013
2019-04-06T04:51:03.819Z,10.263367
2019-04-06T04:54:33.742Z,10.213013
2019-04-06T04:58:03.713Z,10.243225
2019-04-06T05:01:33.456Z,10.202942
2019-04-06T05:05:01.332Z,10.142517
2019-04-06T05:08:31.188Z,10.082092
2019-04-06T05:12:01.063Z,10.092163
2019-04-06T05:15:31.081Z,10.102234
2019-04-06T05:19:01.105Z,10.122375
2019-04-06T05:22:30.693Z,10.102234
2019-04-06T05:26:00.556Z,10.162659
2019-04-06T05:29:30.408Z,10.142517
2019-04-06T05:33:01.267Z,10.1828
2019-04-06T05:36:31.138Z,10.213013
2019-04-06T05:40:01.035Z,10.273438
2019-04-06T05:43:30.873Z,10.273438
2019-04-06T05:47:00.844Z,10.354004
2019-04-06T05:50:30.657Z,10.354004
2019-04-06T05:54:00.425Z,10.354004
2019-04-06T06:02:27.117Z,10.515137
2019-04-06T06:05:57.997Z,10.565491
2019-04-06T06:14:07.909Z,10.666199
2019-04-06T06:17:37.721Z,10.726624
2019-04-06T06:21:07.659Z,10.696411
2019-04-06T06:24:37.602Z,10.726624
2019-04-06T06:28:14.110Z,10.797119
2019-04-06T06:31:41.204Z,10.897827
2019-04-06T06:35:11.039Z,10.92804
2019-04-06T06:38:40.857Z,11.119385
2019-04-06T06:42:12.664Z,11.280518
2019-04-06T06:45:42.497Z,11.492004
2019-04-06T06:49:12.992Z,11.673279
2019-04-06T06:52:43.571Z,11.804199
2019-04-06T06:56:13.408Z,11.94519
2019-04-06T06:59:43.252Z,11.955261
2019-04-06T07:03:13.052Z,12.025757
2019-04-06T07:06:42.890Z,12.06604
2019-04-06T07:10:13.096Z,12.096252
2019-04-06T07:13:42.783Z,12.166748
2019-04-06T07:17:12.591Z,12.358093
2019-04-06T07:20:42.417Z,12.43866
2019-04-06T07:24:12.277Z,12.589722
2019-04-06T07:27:42.267Z,12.680359
2019-04-06T07:31:12.203Z,12.650146
2019-04-06T07:34:42.863Z,12.69043
2019-04-06T07:38:12.794Z,12.831421
2019-04-06T07:41:42.561Z,12.992554
2019-04-06T07:45:12.382Z,13.133545
2019-04-06T07:48:42.279Z,13.264465
2019-04-06T07:52:12.097Z,13.264465
2019-04-06T07:55:41.955Z,13.163757
2019-04-06T07:59:11.819Z,13.204041
2019-04-06T08:02:42.568Z,13.204041
2019-04-06T08:06:12.573Z,13.395386
2019-04-06T08:09:42.269Z,13.596802
2019-04-06T08:13:12.100Z,13.677368
2019-04-06T08:16:41.921Z,13.677368
2019-04-06T08:20:12.767Z,13.637085
2019-04-06T08:23:42.596Z,13.757935
2019-04-06T08:27:12.465Z,13.82843
2019-04-06T08:30:45.915Z,13.858643
2019-04-06T08:34:14.259Z,14.110413
2019-04-06T08:37:44.032Z,14.180908
2019-04-06T08:41:14.034Z,14.221191
2019-04-06T08:44:43.736Z,14.311829
2019-04-06T08:48:13.709Z,14.513245
2019-04-06T08:51:43.650Z,14.533386
2019-04-06T08:55:13.492Z,14.70459
2019-04-06T08:58:43.376Z,14.865723
2019-04-06T09:02:13.221Z,14.916077
2019-04-06T09:05:43.069Z,15.077209
2019-04-06T09:09:14.093Z,15.117493
2019-04-06T09:12:47.332Z,15.288696
2019-04-06T09:16:18.168Z,15.520325
2019-04-06T09:19:48.095Z,15.731812
2019-04-06T09:23:18.116Z,15.852661
2019-04-06T09:26:48.760Z,15.882874
2019-04-06T09:30:17.885Z,16.023865
2019-04-06T09:33:47.711Z,16.255493
2019-04-06T09:37:20.125Z,16.789246
2019-04-06T09:40:50.872Z,16.900024
2019-04-06T09:44:20.435Z,16.738892
2019-04-06T09:47:50.595Z,17.010803
2019-04-06T09:51:20.445Z,17.071228
2019-04-06T09:54:50.078Z,17.322998
2019-04-06T09:58:19.958Z,17.34314
2019-04-06T10:01:49.816Z,17.393494
2019-04-06T10:05:19.692Z,17.463989
2019-04-06T10:08:50.759Z,17.685547
2019-04-06T10:12:20.513Z,17.876892
2019-04-06T10:15:50.435Z,18.017883
2019-04-06T10:19:20.236Z,18.179016
2019-04-06T10:22:50.120Z,18.430786
2019-04-06T10:26:20.081Z,18.541565
2019-04-06T10:29:50.382Z,18.964539
2019-04-06T10:33:20.197Z,19.256592
2019-04-06T10:36:50.080Z,19.155884
2019-04-06T10:40:20.098Z,19.971619
2019-04-06T10:43:49.961Z,21.351318
2019-04-06T10:47:19.582Z,22.37854
2019-04-06T10:50:50.448Z,22.831726
2019-04-06T10:54:20.302Z,23.597107
2019-04-06T10:57:50.461Z,24.342346
2019-04-06T11:01:20.684Z,24.664612
2019-04-06T11:04:50.587Z,23.959656
2019-04-06T11:08:20.560Z,23.728027
2019-04-06T11:11:50.543Z,23.979797
2019-04-06T11:15:23.207Z,24.745178
2019-04-06T11:18:53.275Z,24.845886
2019-04-06T11:22:24.583Z,24.624329
2019-04-06T11:25:54.423Z,24.251709
2019-04-06T11:29:24.280Z,24.714966
2019-04-06T11:32:54.130Z,24.996948
2019-04-06T11:36:24.410Z,24.735107
2019-04-06T11:39:54.225Z,24.996948
2019-04-06T11:43:25.172Z,24.89624
2019-04-06T11:46:55.194Z,25.550842
2019-04-06T11:50:25.259Z,26.004028
2019-04-06T11:53:55.160Z,26.336365
2019-04-06T11:57:24.985Z,26.084595
2019-04-06T12:00:54.885Z,26.114807
2019-04-06T12:04:26.052Z,26.074524
2019-04-06T12:07:55.582Z,25.369568
2019-04-06T12:11:25.441Z,25.158081
2019-04-06T12:14:56.166Z,25.480347
2019-04-06T12:18:26.053Z,25.510559
2019-04-06T12:21:56.064Z,25.832825
2019-04-06T12:25:25.824Z,25.490417
2019-04-06T12:28:55.672Z,25.429993
2019-04-06T12:32:25.622Z,25.52063
2019-04-06T12:35:55.497Z,25.007019
2019-04-06T12:39:25.225Z,24.936523
2019-04-06T12:42:55.110Z,24.634399
2019-04-06T12:46:24.939Z,25.732117
2019-04-06T12:49:54.812Z,25.299072
2019-04-06T12:53:24.702Z,25.117798
2019-04-06T12:56:54.645Z,24.533691
2019-04-06T13:00:24.794Z,24.855957
2019-04-06T13:03:54.334Z,24.312134
2019-04-06T13:07:24.231Z,23.627319
2019-04-06T13:10:54.329Z,22.731018
2019-04-06T13:14:24.106Z,22.086487
2019-04-06T13:17:53.992Z,21.99585
2019-04-06T13:21:24.132Z,21.633301
2019-04-06T13:24:53.869Z,21.75415
2019-04-06T13:28:23.702Z,22.036133
2019-04-06T13:31:56.196Z,22.700806
2019-04-06T13:35:28.651Z,23.224487
2019-04-06T13:38:59.156Z,23.294983
2019-04-06T13:42:28.865Z,22.992859
2019-04-06T13:45:58.661Z,23.627319
2019-04-06T13:49:28.951Z,23.788452
2019-04-06T13:53:00.877Z,23.607178
2019-04-06T13:56:29.642Z,24.221497
2019-04-06T13:59:59.547Z,24.060364
2019-04-06T14:03:29.542Z,24.130859
2019-04-06T14:07:00.478Z,24.130859
2019-04-06T14:10:30.315Z,23.738098
2019-04-06T14:14:00.158Z,23.879089
2019-04-06T14:17:30.057Z,23.063354
2019-04-06T14:21:00.931Z,22.358398
2019-04-06T14:24:30.797Z,22.37854
2019-04-06T14:28:00.656Z,23.294983
2019-04-06T14:31:31.507Z,23.959656
2019-04-06T14:35:01.826Z,23.838806
2019-04-06T14:38:31.253Z,23.073425
2019-04-06T14:42:01.029Z,23.063354
2019-04-06T14:45:31.042Z,23.325195
2019-04-06T14:49:10.930Z,22.982788
2019-04-06T14:52:36.487Z,23.013
2019-04-06T14:56:06.413Z,23.707886
2019-04-06T14:59:36.161Z,24.070435
2019-04-06T15:03:06.223Z,23.50647
2019-04-06T15:06:36.132Z,22.76123
2019-04-06T15:10:06.146Z,22.861938
2019-04-06T15:13:35.606Z,22.519531
2019-04-06T15:17:05.463Z,22.217407
2019-04-06T15:20:36.257Z,21.955566
2019-04-06T15:24:06.246Z,21.975708
2019-04-06T15:27:36.389Z,21.180115
2019-04-06T15:31:05.807Z,20.696716
2019-04-06T15:34:35.847Z,19.870911
2019-04-06T15:38:05.844Z,19.48822
2019-04-06T15:41:35.341Z,18.98468
2019-04-06T15:45:06.274Z,19.125671
2019-04-06T15:48:39.131Z,19.085388
2019-04-06T15:52:11.268Z,18.863831
2019-04-06T15:55:42.583Z,18.612061
2019-04-06T15:59:12.416Z,18.108521
2019-04-06T16:02:16.062Z,17.433777
2019-04-06T16:05:45.875Z,16.789246
2019-04-06T16:09:16.690Z,16.728821
2019-04-06T16:12:46.822Z,16.577759
2019-04-06T16:16:16.424Z,16.275635
2019-04-06T16:19:46.318Z,16.416626
2019-04-06T16:23:16.403Z,16.386414
2019-04-06T16:26:46.286Z,15.812378
2019-04-06T16:30:16.316Z,15.661316
2019-04-06T16:33:45.989Z,15.318909
2019-04-06T16:37:15.757Z,15.067139
2019-04-06T16:40:46.027Z,14.916077
2019-04-06T16:44:15.645Z,14.885864
2019-04-06T16:47:45.611Z,14.815369
2019-04-06T16:51:15.715Z,14.694519
2019-04-06T16:54:45.638Z,14.674377
2019-04-06T16:58:15.645Z,14.45282
2019-04-06T17:01:45.775Z,14.190979
2019-04-06T17:05:16.553Z,13.969421
2019-04-06T17:08:46.908Z,13.757935
2019-04-06T17:12:16.470Z,13.637085
2019-04-06T17:15:46.309Z,13.44574
2019-04-06T17:19:16.572Z,13.415527
2019-04-06T17:22:46.047Z,13.244324
2019-04-06T17:26:16.400Z,13.042908
2019-04-06T17:29:47.108Z,12.962341
2019-04-06T17:33:17.853Z,12.730713
2019-04-06T17:36:47.963Z,12.468872
2019-04-06T17:40:17.844Z,12.408447
2019-04-06T17:43:48.438Z,12.327881
2019-04-06T17:47:18.094Z,12.06604
2019-04-06T17:50:48.089Z,12.045898
2019-04-06T17:54:18.031Z,11.894836
2019-04-06T17:57:48.265Z,11.854553
2019-04-06T18:01:18.377Z,11.713562
2019-04-06T18:04:47.890Z,11.451721
2019-04-06T18:08:17.727Z,11.371155
2019-04-06T18:11:47.599Z,11.340942
2019-04-06T18:15:17.785Z,11.300659
2019-04-06T18:18:47.423Z,11.270447
2019-04-06T18:22:17.527Z,11.048889
2019-04-06T18:25:47.446Z,10.857544
2019-04-06T18:29:17.383Z,10.847473
2019-04-06T18:32:57.667Z,10.776978
2019-04-06T18:36:22.170Z,10.756836
2019-04-06T18:39:52.545Z,10.817261
2019-04-06T18:43:21.912Z,10.666199
2019-04-06T18:46:51.866Z,10.595703
2019-04-06T18:50:28.505Z,10.595703
2019-04-06T18:53:56.664Z,10.464783
2019-04-06T18:57:26.581Z,10.354004
2019-04-06T19:00:57.332Z,10.313721
2019-04-06T19:04:27.441Z,10.172729
2019-04-06T19:07:57.504Z,10.061951
2019-04-06T19:11:26.966Z,10.05188
2019-04-06T19:14:56.957Z,9.991455
2019-04-06T19:18:28.426Z,9.941101
2019-04-06T19:21:59.015Z,9.941101
2019-04-06T19:25:28.627Z,9.93103
2019-04-06T19:28:58.530Z,9.80011
2019-04-06T19:32:28.470Z,9.699402
2019-04-06T19:35:58.735Z,9.699402
2019-04-06T19:39:28.994Z,9.779968
2019-04-06T19:43:00.030Z,9.538269
2019-04-06T19:46:31.034Z,9.538269
2019-04-06T19:50:02.118Z,9.508057
2019-04-06T19:53:32.251Z,9.538269
2019-04-06T19:57:03.253Z,9.477844
2019-04-06T20:00:33.707Z,9.477844
2019-04-06T20:04:03.580Z,9.336853
2019-04-06T20:07:38.153Z,9.226074
2019-04-06T20:11:08.917Z,9.185791
2019-04-06T20:14:39.741Z,9.135437
2019-04-06T20:18:10.499Z,9.115295
2019-04-06T20:21:40.979Z,9.075012
2019-04-06T20:25:11.063Z,8.994446
2019-04-06T20:28:41.139Z,8.994446
2019-04-06T20:32:12.183Z,8.964233
2019-04-06T20:35:42.690Z,8.92395
2019-04-06T20:39:13.036Z,8.893738
2019-04-06T20:42:43.487Z,8.772888
2019-04-06T20:46:15.302Z,8.742676
2019-04-06T20:49:47.641Z,8.772888
2019-04-06T20:53:18.850Z,8.722534
2019-04-06T20:56:55.110Z,8.621826
2019-04-06T21:00:23.527Z,8.551331
2019-04-06T21:04:00.686Z,8.561401
2019-04-06T21:07:27.614Z,8.551331
2019-04-06T21:10:57.877Z,8.470764
2019-04-06T21:14:29.411Z,8.460693
2019-04-06T21:17:59.909Z,8.42041
2019-04-06T21:21:29.331Z,8.380127
2019-04-06T21:24:59.364Z,8.339844
2019-04-06T21:28:29.263Z,8.28949
2019-04-06T21:32:00.262Z,8.259277
2019-04-06T21:35:30.234Z,8.088074
2019-04-06T21:39:01.581Z,7.937012
2019-04-06T21:42:31.716Z,7.957153
2019-04-06T21:46:01.232Z,7.906799
2019-04-06T21:49:32.318Z,7.91687
2019-04-06T21:53:01.548Z,7.876587
2019-04-06T21:56:31.921Z,7.755737
2019-04-06T22:00:02.172Z,7.705383
